createdAt,value
2018-10-03T00:01:44.233Z,90.69
2018-10-03T00:04:11.895Z,90.12
2018-10-03T00:06:39.553Z,90.22
2018-10-03T00:09:07.980Z,90.28
2018-10-03T00:11:35.665Z,90.79
2018-10-03T00:14:03.620Z,90.98
2018-10-03T00:16:31.264Z,91.07
2018-10-03T00:18:58.964Z,91.10
2018-10-03T00:21:26.577Z,91.66
2018-10-03T00:23:54.221Z,91.89
2018-10-03T00:26:21.825Z,91.14
2018-10-03T00:28:49.468Z,91.16
2018-10-03T00:31:17.084Z,90.82
2018-10-03T00:33:44.902Z,90.40
2018-10-03T00:36:12.540Z,89.91
2018-10-03T00:38:40.219Z,90.06
2018-10-03T00:41:08.181Z,89.88
2018-10-03T00:43:36.060Z,90.38
2018-10-03T00:46:03.724Z,90.52
2018-10-03T00:48:31.387Z,90.48
2018-10-03T00:50:59.033Z,90.87
2018-10-03T00:53:26.661Z,91.32
2018-10-03T00:55:54.313Z,91.93
2018-10-03T00:58:22.046Z,91.62
2018-10-03T01:00:49.689Z,91.32
2018-10-03T01:03:17.348Z,92.27
2018-10-03T01:05:44.977Z,91.91
2018-10-03T01:08:12.593Z,91.95
2018-10-03T01:10:40.520Z,91.70
2018-10-03T01:13:08.181Z,91.41
2018-10-03T01:15:35.833Z,91.33
2018-10-03T01:18:03.697Z,91.03
2018-10-03T01:20:31.329Z,91.17
2018-10-03T01:22:58.965Z,91.93
2018-10-03T01:25:26.991Z,91.85
2018-10-03T01:27:54.649Z,91.82
2018-10-03T01:30:22.293Z,92.23
2018-10-03T01:32:49.958Z,91.68
2018-10-03T01:35:17.594Z,92.38
2018-10-03T01:37:45.562Z,92.18
2018-10-03T01:40:13.211Z,92.00
2018-10-03T01:42:40.864Z,91.80
2018-10-03T01:45:08.556Z,92.61
2018-10-03T01:47:36.249Z,92.21
2018-10-03T01:50:04.449Z,91.88
2018-10-03T01:52:32.065Z,91.87
2018-10-03T01:54:59.693Z,91.42
2018-10-03T01:57:27.457Z,91.66
2018-10-03T01:59:55.076Z,91.47
2018-10-03T02:02:22.726Z,91.82
2018-10-03T02:04:50.372Z,91.75
2018-10-03T02:07:18.031Z,91.65
2018-10-03T02:09:45.701Z,92.46
2018-10-03T02:12:13.337Z,92.55
2018-10-03T02:14:41.003Z,92.16
2018-10-03T02:17:08.648Z,92.39
2018-10-03T02:19:36.282Z,92.71
2018-10-03T02:22:03.948Z,92.84
2018-10-03T02:24:31.593Z,92.82
2018-10-03T02:26:59.228Z,92.38
2018-10-03T02:29:27.086Z,91.96
2018-10-03T02:31:54.721Z,91.87
2018-10-03T02:34:22.343Z,91.63
2018-10-03T02:36:50.005Z,90.96
2018-10-03T02:39:17.644Z,91.09
2018-10-03T02:41:45.268Z,90.71
2018-10-03T02:44:12.960Z,91.15
2018-10-03T02:46:40.577Z,90.85
2018-10-03T02:49:08.226Z,90.50
2018-10-03T02:51:35.877Z,89.77
2018-10-03T02:54:03.593Z,90.11
2018-10-03T02:56:31.364Z,90.07
2018-10-03T02:58:59.017Z,89.89
2018-10-03T03:01:26.710Z,89.13
2018-10-03T03:03:54.329Z,88.81
2018-10-03T03:06:22.013Z,89.02
2018-10-03T03:08:49.704Z,88.43
2018-10-03T03:11:17.272Z,88.79
2018-10-03T03:13:44.958Z,88.89
2018-10-03T03:16:12.589Z,88.86
2018-10-03T03:18:40.219Z,88.58
2018-10-03T03:21:07.861Z,88.56
2018-10-03T03:23:35.490Z,88.08
2018-10-03T03:26:03.091Z,87.65
2018-10-03T03:28:30.800Z,87.68
2018-10-03T03:30:58.419Z,88.05
2018-10-03T03:33:26.108Z,88.16
2018-10-03T03:35:53.766Z,88.24
2018-10-03T03:38:21.402Z,88.59
2018-10-03T03:40:49.055Z,88.71
2018-10-03T03:43:16.729Z,88.70
2018-10-03T03:45:44.432Z,88.64
2018-10-03T03:48:12.072Z,88.73
2018-10-03T03:50:39.706Z,89.03
2018-10-03T03:53:07.334Z,89.88
2018-10-03T03:55:35.021Z,89.58
2018-10-03T03:58:02.666Z,89.82
2018-10-03T04:00:30.293Z,89.68
2018-10-03T04:02:57.941Z,90.00
2018-10-03T04:05:25.590Z,89.66
2018-10-03T04:07:53.466Z,89.06
2018-10-03T04:10:21.141Z,88.92
2018-10-03T04:12:48.869Z,89.37
2018-10-03T04:15:16.543Z,89.80
2018-10-03T04:17:44.209Z,89.81
2018-10-03T04:20:11.929Z,89.50
2018-10-03T04:22:39.713Z,89.32
2018-10-03T04:25:07.380Z,89.25
2018-10-03T04:27:35.174Z,88.97
2018-10-03T04:30:02.834Z,89.28
2018-10-03T04:32:30.464Z,89.25
2018-10-03T04:34:58.105Z,89.36
2018-10-03T04:37:25.742Z,89.58
2018-10-03T04:39:53.431Z,89.42
2018-10-03T04:42:21.090Z,89.44
2018-10-03T04:44:48.721Z,89.14
2018-10-03T04:47:16.352Z,89.73
2018-10-03T04:49:43.993Z,89.73
2018-10-03T04:52:11.622Z,89.58
2018-10-03T04:54:39.429Z,89.41
2018-10-03T04:57:07.093Z,88.72
2018-10-03T04:59:34.740Z,88.89
2018-10-03T05:02:02.437Z,89.25
2018-10-03T05:04:30.085Z,88.98
2018-10-03T05:06:57.737Z,88.92
2018-10-03T05:09:25.367Z,88.82
2018-10-03T05:11:53.099Z,88.53
2018-10-03T05:14:20.752Z,88.72
2018-10-03T05:16:48.421Z,88.31
2018-10-03T05:19:16.149Z,88.48
2018-10-03T05:21:43.778Z,88.38
2018-10-03T05:24:11.425Z,88.50
2018-10-03T05:26:39.102Z,88.10
2018-10-03T05:29:06.745Z,87.83
2018-10-03T05:31:34.421Z,87.78
2018-10-03T05:34:08.948Z,87.20
2018-10-03T05:36:40.824Z,87.43
2018-10-03T05:39:11.999Z,87.07
2018-10-03T05:41:41.565Z,87.10
2018-10-03T05:44:11.323Z,87.50
2018-10-03T05:46:43.951Z,87.39
2018-10-03T05:49:12.445Z,87.40
2018-10-03T05:51:42.361Z,86.78
2018-10-03T05:54:11.270Z,86.73
2018-10-03T05:56:39.586Z,87.10
2018-10-03T05:59:08.284Z,86.89
2018-10-03T06:01:36.440Z,86.61
2018-10-03T06:04:05.609Z,86.11
2018-10-03T06:06:34.488Z,86.00
2018-10-03T06:09:05.595Z,86.04
2018-10-03T06:11:34.873Z,85.91
2018-10-03T06:14:03.816Z,86.12
2018-10-03T06:16:32.873Z,86.11
2018-10-03T06:19:02.814Z,86.09
2018-10-03T06:21:30.744Z,86.55
2018-10-03T06:24:02.001Z,86.94
2018-10-03T06:26:31.054Z,86.73
2018-10-03T06:28:59.045Z,87.17
2018-10-03T06:31:27.365Z,87.74
2018-10-03T06:33:55.397Z,88.01
2018-10-03T06:36:23.342Z,88.25
2018-10-03T06:38:51.923Z,88.40
2018-10-03T06:41:23.723Z,88.67
2018-10-03T06:43:51.707Z,88.09
2018-10-03T06:46:20.242Z,88.18
2018-10-03T06:48:48.231Z,88.41
2018-10-03T06:51:16.088Z,88.87
2018-10-03T06:53:43.949Z,88.64
2018-10-03T06:56:11.895Z,88.98
2018-10-03T06:58:39.741Z,88.74
2018-10-03T07:01:07.756Z,88.53
2018-10-03T07:03:36.142Z,88.38
2018-10-03T07:06:03.990Z,88.45
2018-10-03T07:08:31.879Z,88.31
2018-10-03T07:10:59.762Z,88.57
2018-10-03T07:13:28.624Z,88.77
2018-10-03T07:15:57.288Z,89.17
2018-10-03T07:18:27.451Z,89.17
2018-10-03T07:20:55.308Z,89.29
2018-10-03T07:23:23.183Z,89.29
2018-10-03T07:25:51.063Z,89.39
2018-10-03T07:28:18.903Z,89.32
2018-10-03T07:30:48.664Z,89.40
2018-10-03T07:33:16.856Z,89.73
2018-10-03T07:35:45.414Z,89.52
2018-10-03T07:38:14.427Z,89.33
2018-10-03T07:40:42.579Z,89.41
2018-10-03T07:43:10.871Z,89.36
2018-10-03T07:45:38.707Z,89.50
2018-10-03T07:48:07.578Z,89.78
2018-10-03T07:50:35.635Z,89.19
2018-10-03T07:53:03.570Z,89.69
2018-10-03T07:55:31.443Z,89.76
2018-10-03T07:57:59.435Z,90.10
2018-10-03T08:00:28.821Z,90.51
2018-10-03T08:02:58.537Z,90.28
2018-10-03T08:05:26.494Z,90.04
2018-10-03T08:07:54.161Z,89.79
2018-10-03T08:10:21.933Z,89.92
2018-10-03T08:12:49.578Z,89.85
2018-10-03T08:15:18.401Z,89.93
2018-10-03T08:17:47.149Z,90.41
2018-10-03T08:20:15.778Z,90.06
2018-10-03T08:22:44.250Z,89.76
2018-10-03T08:25:13.253Z,90.30
2018-10-03T08:27:43.111Z,90.58
2018-10-03T08:30:11.431Z,90.51
2018-10-03T08:32:39.724Z,90.44
2018-10-03T08:35:09.011Z,90.42
2018-10-03T08:37:37.271Z,90.33
2018-10-03T08:40:05.463Z,89.94
2018-10-03T08:42:33.837Z,90.34
2018-10-03T08:45:01.869Z,90.21
2018-10-03T08:47:29.804Z,89.97
2018-10-03T08:49:57.877Z,90.07
2018-10-03T08:52:26.307Z,89.89
2018-10-03T08:54:54.283Z,90.19
2018-10-03T08:57:22.347Z,90.22
2018-10-03T08:59:50.352Z,90.33
2018-10-03T09:02:18.957Z,90.43
2018-10-03T09:04:47.889Z,90.81
2018-10-03T09:07:16.778Z,90.68
2018-10-03T09:09:45.045Z,90.60
2018-10-03T09:12:13.145Z,90.63
2018-10-03T09:14:42.979Z,90.44
2018-10-03T09:17:12.433Z,90.44
2018-10-03T09:19:40.558Z,90.13
2018-10-03T09:22:10.577Z,90.21
2018-10-03T09:24:38.271Z,90.12
2018-10-03T09:27:05.913Z,90.03
2018-10-03T09:29:33.584Z,90.19
2018-10-03T09:32:01.364Z,90.31
2018-10-03T09:34:29.006Z,90.03
2018-10-03T09:36:56.680Z,90.14
2018-10-03T09:39:24.394Z,90.05
2018-10-03T09:41:52.034Z,89.90
2018-10-03T09:44:19.736Z,90.35
2018-10-03T09:46:47.402Z,90.12
2018-10-03T09:49:15.045Z,90.20
2018-10-03T09:51:42.668Z,90.43
2018-10-03T09:54:10.374Z,90.04
2018-10-03T09:56:37.993Z,89.66
2018-10-03T09:59:05.673Z,89.85
2018-10-03T10:01:34.119Z,90.08
2018-10-03T10:04:02.881Z,90.21
2018-10-03T10:06:31.732Z,90.05
2018-10-03T10:08:59.356Z,89.58
2018-10-03T10:11:27.143Z,90.21
2018-10-03T10:13:54.691Z,90.11
2018-10-03T10:16:22.336Z,90.26
2018-10-03T10:18:50.566Z,89.78
2018-10-03T10:21:18.198Z,89.72
2018-10-03T10:23:45.864Z,89.13
2018-10-03T10:26:13.513Z,89.82
2018-10-03T10:28:41.258Z,89.61
2018-10-03T10:31:09.009Z,89.58
2018-10-03T10:33:36.665Z,89.01
2018-10-03T10:36:04.358Z,88.87
2018-10-03T10:38:32.020Z,88.64
2018-10-03T10:40:59.704Z,88.54
2018-10-03T10:43:27.352Z,88.70
2018-10-03T10:45:55.041Z,89.28
2018-10-03T10:48:22.721Z,88.31
2018-10-03T10:50:50.373Z,88.98
2018-10-03T10:53:18.033Z,89.45
2018-10-03T10:55:45.662Z,89.23
2018-10-03T10:58:13.429Z,88.67
2018-10-03T11:00:41.088Z,87.89
2018-10-03T11:03:08.831Z,86.49
2018-10-03T11:05:36.548Z,86.92
2018-10-03T11:08:04.263Z,86.35
2018-10-03T11:10:31.893Z,87.24
2018-10-03T11:12:59.496Z,87.12
2018-10-03T11:15:27.290Z,87.56
2018-10-03T11:17:54.995Z,87.08
2018-10-03T11:20:22.621Z,86.73
2018-10-03T11:22:50.229Z,86.07
2018-10-03T11:25:17.991Z,87.66
2018-10-03T11:27:45.755Z,88.00
2018-10-03T11:30:13.424Z,86.46
2018-10-03T11:32:41.062Z,87.47
2018-10-03T11:35:08.705Z,85.90
2018-10-03T11:37:36.382Z,86.49
2018-10-03T11:40:04.237Z,86.89
2018-10-03T11:42:31.864Z,85.82
2018-10-03T11:44:59.534Z,85.72
2018-10-03T11:47:27.175Z,87.08
2018-10-03T11:49:54.853Z,87.44
2018-10-03T11:52:22.525Z,87.20
2018-10-03T11:54:50.157Z,86.16
2018-10-03T11:57:17.816Z,87.18
2018-10-03T11:59:45.448Z,86.29
2018-10-03T12:02:13.093Z,86.59
2018-10-03T12:04:40.733Z,86.88
2018-10-03T12:07:08.421Z,87.05
2018-10-03T12:09:36.044Z,88.39
2018-10-03T12:12:03.717Z,87.40
2018-10-03T12:14:31.357Z,86.62
2018-10-03T12:16:58.973Z,86.86
2018-10-03T12:19:26.666Z,87.83
2018-10-03T12:21:54.345Z,87.60
2018-10-03T12:24:21.961Z,86.80
2018-10-03T12:26:56.397Z,86.22
2018-10-03T12:29:24.021Z,86.45
2018-10-03T12:31:51.690Z,86.15
2018-10-03T12:34:19.326Z,86.69
2018-10-03T12:36:46.943Z,86.64
2018-10-03T12:39:14.583Z,86.40
2018-10-03T12:41:42.236Z,86.98
2018-10-03T12:44:09.877Z,86.54
2018-10-03T12:46:38.121Z,86.77
2018-10-03T12:49:05.822Z,86.42
2018-10-03T12:51:33.472Z,86.53
2018-10-03T12:54:01.128Z,86.71
2018-10-03T12:56:28.753Z,86.48
2018-10-03T12:58:56.448Z,86.76
2018-10-03T13:01:24.192Z,86.43
2018-10-03T13:03:51.757Z,87.08
2018-10-03T13:06:19.383Z,85.97
2018-10-03T13:08:46.985Z,86.31
2018-10-03T13:11:14.621Z,87.07
2018-10-03T13:13:42.237Z,86.78
2018-10-03T13:16:10.011Z,86.56
2018-10-03T13:18:37.630Z,86.86
2018-10-03T13:21:05.270Z,87.08
2018-10-03T13:23:32.898Z,86.87
2018-10-03T13:26:00.517Z,86.77
2018-10-03T13:28:28.213Z,86.18
2018-10-03T13:30:55.885Z,86.33
2018-10-03T13:33:23.537Z,86.58
2018-10-03T13:35:51.473Z,85.81
2018-10-03T13:38:19.104Z,87.33
2018-10-03T13:40:46.789Z,86.58
2018-10-03T13:43:14.409Z,86.03
2018-10-03T13:45:42.097Z,86.13
2018-10-03T13:48:09.793Z,86.02
2018-10-03T13:50:37.445Z,86.26
2018-10-03T13:53:05.104Z,87.43
2018-10-03T13:55:32.818Z,86.86
2018-10-03T13:58:00.444Z,86.86
2018-10-03T14:00:28.138Z,85.90
2018-10-03T14:02:55.762Z,85.75
2018-10-03T14:05:23.420Z,85.49
2018-10-03T14:07:51.140Z,85.45
2018-10-03T14:10:18.800Z,85.72
2018-10-03T14:12:46.477Z,85.63
2018-10-03T14:15:14.130Z,85.32
2018-10-03T14:17:41.800Z,85.04
2018-10-03T14:20:09.778Z,86.45
2018-10-03T14:22:37.416Z,86.37
2018-10-03T14:25:05.505Z,85.43
2018-10-03T14:27:33.164Z,85.30
2018-10-03T14:30:00.919Z,85.70
2018-10-03T14:32:28.537Z,85.65
2018-10-03T14:34:56.153Z,85.22
2018-10-03T14:37:23.837Z,86.25
2018-10-03T14:39:51.540Z,84.75
2018-10-03T14:42:19.148Z,83.76
2018-10-03T14:44:46.759Z,83.86
2018-10-03T14:47:14.423Z,85.56
2018-10-03T14:49:42.069Z,85.45
2018-10-03T14:52:09.774Z,84.63
2018-10-03T14:54:37.479Z,85.13
2018-10-03T14:57:05.129Z,84.70
2018-10-03T14:59:32.726Z,84.58
2018-10-03T15:02:00.397Z,85.05
2018-10-03T15:04:28.032Z,84.82
2018-10-03T15:06:55.670Z,85.34
2018-10-03T15:09:23.369Z,85.80
2018-10-03T15:11:51.005Z,86.04
2018-10-03T15:14:18.669Z,86.44
2018-10-03T15:16:46.392Z,86.50
2018-10-03T15:19:14.030Z,86.59
2018-10-03T15:21:41.702Z,86.96
2018-10-03T15:24:09.351Z,87.05
2018-10-03T15:26:37.018Z,87.04
2018-10-03T15:29:04.682Z,86.82
2018-10-03T15:31:32.389Z,87.03
2018-10-03T15:34:00.005Z,87.20
2018-10-03T15:36:27.737Z,87.06
2018-10-03T15:38:55.389Z,87.46
2018-10-03T15:41:23.005Z,87.67
2018-10-03T15:43:50.669Z,87.86
2018-10-03T15:46:18.314Z,87.88
2018-10-03T15:48:45.953Z,88.15
2018-10-03T15:51:14.502Z,87.98
2018-10-03T15:53:42.193Z,88.05
2018-10-03T15:56:09.813Z,88.28
2018-10-03T15:58:37.437Z,88.11
2018-10-03T16:01:05.406Z,88.40
2018-10-03T16:03:39.764Z,88.68
2018-10-03T16:06:07.429Z,88.47
2018-10-03T16:08:35.061Z,88.22
2018-10-03T16:11:02.755Z,88.25
2018-10-03T16:13:30.432Z,88.98
2018-10-03T16:15:58.135Z,88.78
2018-10-03T16:18:25.773Z,88.73
2018-10-03T16:20:53.405Z,88.70
2018-10-03T16:23:21.065Z,88.96
2018-10-03T16:25:48.740Z,88.83
2018-10-03T16:28:16.365Z,89.43
2018-10-03T16:30:44.012Z,89.42
2018-10-03T16:33:11.671Z,89.77
2018-10-03T16:35:39.296Z,89.49
2018-10-03T16:38:06.941Z,89.31
2018-10-03T16:40:34.561Z,89.51
2018-10-03T16:43:02.207Z,89.18
2018-10-03T16:45:29.836Z,89.48
2018-10-03T16:47:57.505Z,89.57
2018-10-03T16:50:25.140Z,90.03
2018-10-03T16:52:52.857Z,90.17
2018-10-03T16:55:20.594Z,90.01
2018-10-03T16:57:48.341Z,90.10
2018-10-03T17:00:15.960Z,89.75
2018-10-03T17:02:43.701Z,89.98
2018-10-03T17:05:11.446Z,89.77
2018-10-03T17:07:39.181Z,89.94
2018-10-03T17:10:08.229Z,89.64
2018-10-03T17:12:35.901Z,90.24
2018-10-03T17:15:03.641Z,89.96
2018-10-03T17:17:31.517Z,89.40
2018-10-03T17:19:59.162Z,89.36
2018-10-03T17:22:26.793Z,89.20
2018-10-03T17:24:54.798Z,89.51
2018-10-03T17:27:22.436Z,89.71
2018-10-03T17:29:50.049Z,89.48
2018-10-03T17:32:17.896Z,89.44
2018-10-03T17:34:45.523Z,89.63
2018-10-03T17:37:13.166Z,89.80
2018-10-03T17:39:40.820Z,89.79
2018-10-03T17:42:08.478Z,89.64
2018-10-03T17:44:36.154Z,89.68
2018-10-03T17:47:03.805Z,89.84
2018-10-03T17:49:31.437Z,89.49
2018-10-03T17:51:59.081Z,89.12
2018-10-03T17:54:26.791Z,89.34
2018-10-03T17:56:54.453Z,89.46
2018-10-03T17:59:22.082Z,89.05
2018-10-03T18:01:51.764Z,89.17
2018-10-03T18:04:19.517Z,89.57
2018-10-03T18:06:47.205Z,89.54
2018-10-03T18:09:14.983Z,89.72
2018-10-03T18:11:42.637Z,89.79
2018-10-03T18:14:10.284Z,89.78
2018-10-03T18:16:37.912Z,89.94
2018-10-03T18:19:05.726Z,89.81
2018-10-03T18:21:33.862Z,90.33
2018-10-03T18:24:01.482Z,90.24
2018-10-03T18:26:29.145Z,90.59
2018-10-03T18:28:56.797Z,91.03
2018-10-03T18:31:24.686Z,90.89
2018-10-03T18:33:52.976Z,90.63
2018-10-03T18:36:20.609Z,91.03
2018-10-03T18:38:48.471Z,90.93
2018-10-03T18:41:16.141Z,90.17
2018-10-03T18:43:43.789Z,89.94
2018-10-03T18:46:11.442Z,89.25
2018-10-03T18:48:39.084Z,89.00
2018-10-03T18:51:06.829Z,89.57
2018-10-03T18:53:34.593Z,88.73
2018-10-03T18:56:02.322Z,89.06
2018-10-03T18:58:30.041Z,88.76
2018-10-03T19:00:57.666Z,89.37
2018-10-03T19:03:25.308Z,89.34
2018-10-03T19:05:53.104Z,89.23
2018-10-03T19:08:20.673Z,89.61
2018-10-03T19:10:48.341Z,87.77
2018-10-03T19:13:15.955Z,87.86
2018-10-03T19:15:43.570Z,88.97
2018-10-03T19:18:11.421Z,88.47
2018-10-03T19:20:38.985Z,88.32
2018-10-03T19:23:06.599Z,86.31
2018-10-03T19:25:34.268Z,85.68
2018-10-03T19:28:01.936Z,84.69
2018-10-03T19:30:29.568Z,85.46
2018-10-03T19:32:57.264Z,82.89
2018-10-03T19:35:24.896Z,84.65
2018-10-03T19:37:52.541Z,83.46
2018-10-03T19:40:20.208Z,85.22
2018-10-03T19:42:47.879Z,85.02
2018-10-03T19:45:15.590Z,85.27
2018-10-03T19:47:43.205Z,84.59
2018-10-03T19:50:10.832Z,86.03
2018-10-03T19:52:38.517Z,84.74
2018-10-03T19:55:06.183Z,83.96
2018-10-03T19:57:33.813Z,84.76
2018-10-03T20:00:01.485Z,83.85
2018-10-03T20:02:29.145Z,84.30
2018-10-03T20:04:56.809Z,85.38
2018-10-03T20:07:24.504Z,85.41
2018-10-03T20:09:52.128Z,86.62
2018-10-03T20:12:19.744Z,86.87
2018-10-03T20:14:47.399Z,86.70
2018-10-03T20:17:15.017Z,87.07
2018-10-03T20:19:42.698Z,87.06
2018-10-03T20:22:10.747Z,86.33
2018-10-03T20:24:38.817Z,86.26
2018-10-03T20:27:06.518Z,85.27
2018-10-03T20:29:34.204Z,85.10
2018-10-03T20:32:01.933Z,86.32
2018-10-03T20:34:29.569Z,86.55
2018-10-03T20:36:57.217Z,86.11
2018-10-03T20:39:24.828Z,86.23
2018-10-03T20:41:52.543Z,84.96
2018-10-03T20:44:20.109Z,83.86
2018-10-03T20:46:47.721Z,84.49
2018-10-03T20:49:15.377Z,83.29
2018-10-03T20:51:42.990Z,84.95
2018-10-03T20:54:10.753Z,84.09
2018-10-03T20:56:38.368Z,84.25
2018-10-03T20:59:05.993Z,85.88
2018-10-03T21:01:33.637Z,84.70
2018-10-03T21:04:01.260Z,85.36
2018-10-03T21:06:28.876Z,84.77
2018-10-03T21:08:56.557Z,84.64
2018-10-03T21:11:24.241Z,86.16
2018-10-03T21:13:51.865Z,86.29
2018-10-03T21:16:19.499Z,86.12
2018-10-03T21:18:47.124Z,86.22
2018-10-03T21:21:14.820Z,86.47
2018-10-03T21:23:42.464Z,86.90
2018-10-03T21:26:10.074Z,86.29
2018-10-03T21:28:37.821Z,86.30
2018-10-03T21:31:05.466Z,86.71
2018-10-03T21:33:33.075Z,87.15
2018-10-03T21:36:00.713Z,86.15
2018-10-03T21:38:28.360Z,86.90
2018-10-03T21:40:55.973Z,86.42
2018-10-03T21:43:23.580Z,86.67
2018-10-03T21:45:51.290Z,86.48
2018-10-03T21:48:18.907Z,86.48
2018-10-03T21:50:46.523Z,86.80
2018-10-03T21:53:14.210Z,86.57
2018-10-03T21:55:42.062Z,87.40
2018-10-03T21:58:09.689Z,87.53
2018-10-03T22:00:42.837Z,87.90
2018-10-03T22:03:10.449Z,87.77
2018-10-03T22:05:38.136Z,87.20
2018-10-03T22:08:05.761Z,87.64
2018-10-03T22:10:33.389Z,86.06
2018-10-03T22:13:01.016Z,87.20
2018-10-03T22:15:28.657Z,87.45
2018-10-03T22:17:56.279Z,87.55
2018-10-03T22:20:23.888Z,87.36
2018-10-03T22:22:51.553Z,87.73
2018-10-03T22:25:19.178Z,87.38
2018-10-03T22:27:46.805Z,87.52
2018-10-03T22:30:14.534Z,87.76
2018-10-03T22:32:42.137Z,88.06
2018-10-03T22:35:09.777Z,88.08
2018-10-03T22:37:37.438Z,87.56
2018-10-03T22:40:05.135Z,86.92
2018-10-03T22:42:32.765Z,87.78
2018-10-03T22:45:00.400Z,87.54
2018-10-03T22:47:28.057Z,87.45
2018-10-03T22:49:55.725Z,87.52
2018-10-03T22:52:23.509Z,87.48
2018-10-03T22:54:51.142Z,87.60
2018-10-03T22:57:18.860Z,87.69
2018-10-03T22:59:46.482Z,87.49
2018-10-03T23:02:14.129Z,87.57
2018-10-03T23:04:41.793Z,87.47
2018-10-03T23:07:09.404Z,87.69
2018-10-03T23:09:37.079Z,87.76
2018-10-03T23:12:04.705Z,87.20
2018-10-03T23:14:32.336Z,87.53
2018-10-03T23:16:59.973Z,87.28
2018-10-03T23:19:27.626Z,87.30
2018-10-03T23:21:55.284Z,87.35
2018-10-03T23:24:22.902Z,87.38
2018-10-03T23:26:50.525Z,87.64
2018-10-03T23:29:18.181Z,87.35
2018-10-03T23:31:45.817Z,87.30
2018-10-03T23:34:13.446Z,87.67
2018-10-03T23:36:41.072Z,87.82
2018-10-03T23:39:10.292Z,87.38
2018-10-03T23:41:38.313Z,87.89
2018-10-03T23:44:06.002Z,87.42
2018-10-03T23:46:33.914Z,87.56
2018-10-03T23:49:01.561Z,87.35
2018-10-03T23:51:29.189Z,87.91
2018-10-03T23:53:56.824Z,87.59
2018-10-03T23:56:24.505Z,88.18
2018-10-03T23:58:52.133Z,87.72
